createdAt,value
2023-03-14T00:00:44.556Z,-2.89
2023-03-14T00:03:17.727Z,-2.92
2023-03-14T00:05:50.950Z,-2.92
2023-03-14T00:08:25.945Z,-2.93
2023-03-14T00:10:59.882Z,-2.92
2023-03-14T00:13:33.109Z,-2.87
2023-03-14T00:16:08.335Z,-2.90
2023-03-14T00:18:42.462Z,-2.87
2023-03-14T00:21:16.019Z,-2.87
2023-03-14T00:23:49.208Z,-2.85
2023-03-14T00:26:23.657Z,-2.73
2023-03-14T00:28:57.128Z,-2.69
2023-03-14T00:31:30.456Z,-2.64
2023-03-14T00:34:03.792Z,-2.59
2023-03-14T00:36:37.806Z,-2.57
2023-03-14T00:39:11.986Z,-2.46
2023-03-14T00:41:45.221Z,-2.50
2023-03-14T00:44:18.500Z,-2.52
2023-03-14T00:46:51.722Z,-2.50
2023-03-14T00:49:25.323Z,-2.53
2023-03-14T00:51:58.546Z,-2.49
2023-03-14T00:54:31.762Z,-2.43
2023-03-14T00:57:05.095Z,-2.41
2023-03-14T00:59:38.798Z,-2.36
2023-03-14T01:02:12.004Z,-2.30
2023-03-14T01:04:45.153Z,-2.28
2023-03-14T01:07:18.820Z,-2.31
2023-03-14T01:12:36.146Z,-2.16
2023-03-14T01:15:11.082Z,-2.29
2023-03-14T01:17:44.961Z,-2.29
2023-03-14T01:20:19.357Z,-2.27
2023-03-14T01:22:52.317Z,-2.29
2023-03-14T01:25:25.377Z,-2.33
2023-03-14T01:27:58.671Z,-2.37
2023-03-14T01:30:32.225Z,-2.37
2023-03-14T01:33:08.624Z,-2.47
2023-03-14T01:35:41.709Z,-2.48
2023-03-14T01:38:14.951Z,-2.55
2023-03-14T01:40:48.174Z,-2.64
2023-03-14T01:43:24.736Z,-2.60
2023-03-14T01:46:28.524Z,-2.68
2023-03-14T01:49:08.684Z,-2.73
2023-03-14T01:51:47.364Z,-2.69
2023-03-14T01:54:25.506Z,-2.73
2023-03-14T01:57:02.653Z,-2.74
2023-03-14T01:59:36.853Z,-2.69
2023-03-14T02:02:12.656Z,-2.60
2023-03-14T02:04:46.321Z,-2.63
2023-03-14T02:07:25.409Z,-2.62
2023-03-14T02:10:00.312Z,-2.57
2023-03-14T02:12:36.140Z,-2.49
2023-03-14T02:15:15.115Z,-2.54
2023-03-14T02:18:00.056Z,-2.55
2023-03-14T02:20:41.311Z,-2.51
2023-03-14T02:23:15.545Z,-2.53
2023-03-14T02:25:54.052Z,-2.40
2023-03-14T02:28:27.682Z,-2.38
2023-03-14T02:31:02.502Z,-2.32
2023-03-14T02:33:37.726Z,-2.34
2023-03-14T02:36:14.457Z,-2.30
2023-03-14T02:38:51.681Z,-2.27
2023-03-14T02:41:25.188Z,-2.22
2023-03-14T02:43:59.898Z,-2.23
2023-03-14T02:46:33.640Z,-2.20
2023-03-14T02:49:09.022Z,-2.19
2023-03-14T02:51:45.664Z,-2.16
2023-03-14T02:54:20.954Z,-2.16
2023-03-14T02:56:54.356Z,-2.06
2023-03-14T02:59:29.498Z,-2.08
2023-03-14T03:02:04.093Z,-2.03
2023-03-14T03:04:37.444Z,-1.98
2023-03-14T03:07:10.742Z,-1.95
2023-03-14T03:09:43.673Z,-1.86
2023-03-14T03:12:16.965Z,-1.77
2023-03-14T03:14:50.393Z,-1.73
2023-03-14T03:17:26.521Z,-1.70
2023-03-14T03:20:01.566Z,-1.68
2023-03-14T03:22:35.159Z,-1.58
2023-03-14T03:25:10.618Z,-1.54
2023-03-14T03:27:43.915Z,-1.55
2023-03-14T03:30:18.714Z,-1.40
2023-03-14T03:32:52.360Z,-1.41
2023-03-14T03:35:25.391Z,-1.58
2023-03-14T03:38:00.096Z,-1.33
2023-03-14T03:40:34.018Z,-1.32
2023-03-14T03:43:07.198Z,-1.32
2023-03-14T03:45:41.818Z,-1.29
2023-03-14T03:48:16.434Z,-1.26
2023-03-14T03:50:50.276Z,-1.21
2023-03-14T03:53:33.099Z,-1.17
2023-03-14T03:55:59.713Z,-1.11
2023-03-14T03:58:32.909Z,-1.09
2023-03-14T04:01:06.260Z,-1.08
2023-03-14T04:03:40.295Z,-1.02
2023-03-14T04:06:15.290Z,-0.96
2023-03-14T04:08:50.072Z,-0.92
2023-03-14T04:11:43.184Z,-0.95
2023-03-14T04:14:30.180Z,-0.93
2023-03-14T04:17:10.727Z,-0.90
2023-03-14T04:19:43.958Z,-0.85
2023-03-14T04:22:17.165Z,-0.81
2023-03-14T04:24:52.193Z,-0.77
2023-03-14T04:27:26.511Z,-0.70
2023-03-14T04:30:00.550Z,-0.67
2023-03-14T04:32:50.543Z,-0.62
2023-03-14T04:35:25.715Z,-0.59
2023-03-14T04:38:00.578Z,-0.55
2023-03-14T04:40:35.224Z,-0.57
2023-03-14T04:43:11.250Z,-0.51
2023-03-14T04:45:46.483Z,-0.47
2023-03-14T04:48:20.341Z,-0.46
2023-03-14T04:50:54.174Z,-0.34
2023-03-14T04:53:27.468Z,-0.29
2023-03-14T04:56:02.252Z,-0.22
2023-03-14T04:58:37.026Z,-0.16
2023-03-14T05:01:11.264Z,-0.15
2023-03-14T05:03:49.011Z,-0.14
2023-03-14T05:06:23.850Z,-0.13
2023-03-14T05:09:06.203Z,-0.12
2023-03-14T05:11:57.026Z,-0.10
2023-03-14T05:14:40.806Z,-0.09
2023-03-14T05:17:17.812Z,-0.09
2023-03-14T05:19:58.158Z,0.00
2023-03-14T05:22:35.645Z,-0.02
2023-03-14T05:25:16.047Z,0.07
2023-03-14T05:28:00.029Z,0.10
2023-03-14T05:30:46.868Z,0.20
2023-03-14T05:33:27.266Z,0.25
2023-03-14T05:36:14.918Z,0.27
2023-03-14T05:38:49.487Z,0.27
2023-03-14T05:44:06.214Z,0.57
2023-03-14T05:46:49.522Z,0.55
2023-03-14T05:49:34.986Z,0.53
2023-03-14T05:52:18.388Z,0.59
2023-03-14T05:54:55.645Z,0.66
2023-03-14T05:57:48.537Z,0.75
2023-03-14T06:00:29.404Z,0.79
2023-03-14T06:03:08.317Z,0.89
2023-03-14T06:05:42.585Z,0.98
2023-03-14T06:08:18.033Z,1.16
2023-03-14T06:10:52.404Z,1.27
2023-03-14T06:13:27.436Z,1.34
2023-03-14T06:16:00.820Z,1.51
2023-03-14T06:18:37.729Z,1.43
2023-03-14T06:21:12.964Z,1.48
2023-03-14T06:23:46.282Z,1.52
2023-03-14T06:26:19.834Z,1.57
2023-03-14T06:28:55.798Z,1.67
2023-03-14T06:31:29.169Z,1.82
2023-03-14T06:34:10.275Z,1.91
2023-03-14T06:36:57.474Z,1.89
2023-03-14T06:39:31.583Z,1.84
2023-03-14T06:42:08.028Z,1.83
2023-03-14T06:44:43.402Z,1.84
2023-03-14T06:47:17.446Z,1.85
2023-03-14T06:49:54.668Z,1.92
2023-03-14T06:52:30.275Z,1.80
2023-03-14T06:55:03.823Z,1.91
2023-03-14T06:57:38.645Z,1.94
2023-03-14T07:00:15.821Z,1.87
2023-03-14T07:02:49.728Z,1.79
2023-03-14T07:05:24.805Z,1.83
2023-03-14T07:07:58.509Z,1.90
2023-03-14T07:10:35.716Z,1.93
2023-03-14T07:13:09.246Z,1.95
2023-03-14T07:15:44.438Z,2.04
2023-03-14T07:18:17.897Z,2.04
2023-03-14T07:20:51.692Z,2.07
2023-03-14T07:23:25.634Z,2.13
2023-03-14T07:26:00.041Z,2.17
2023-03-14T07:28:37.658Z,2.21
2023-03-14T07:31:12.852Z,2.28
2023-03-14T07:33:46.897Z,2.33
2023-03-14T07:36:22.302Z,2.44
2023-03-14T07:38:55.731Z,2.52
2023-03-14T07:41:39.955Z,2.59
2023-03-14T07:44:30.659Z,2.73
2023-03-14T07:47:08.109Z,2.73
2023-03-14T07:49:41.890Z,2.82
2023-03-14T07:52:15.398Z,2.94
2023-03-14T07:54:48.705Z,3.06
2023-03-14T07:57:22.154Z,3.18
2023-03-14T07:59:55.438Z,3.24
2023-03-14T08:02:28.927Z,3.31
2023-03-14T08:05:02.374Z,3.40
2023-03-14T08:07:39.036Z,3.53
2023-03-14T08:10:15.780Z,3.58
2023-03-14T08:12:49.206Z,3.56
2023-03-14T08:15:22.865Z,3.62
2023-03-14T08:17:56.642Z,3.58
2023-03-14T08:20:35.594Z,3.68
2023-03-14T08:23:09.005Z,3.73
2023-03-14T08:25:42.651Z,3.77
2023-03-14T08:28:16.126Z,3.86
2023-03-14T08:30:49.646Z,3.82
2023-03-14T08:33:23.084Z,3.84
2023-03-14T08:38:43.753Z,4.02
2023-03-14T08:41:20.007Z,3.93
2023-03-14T08:43:53.248Z,3.88
2023-03-14T08:46:26.561Z,3.90
2023-03-14T08:48:59.778Z,3.77
2023-03-14T08:51:36.153Z,3.89
2023-03-14T08:54:12.104Z,3.84
2023-03-14T08:56:45.258Z,3.98
2023-03-14T08:59:19.383Z,4.09
2023-03-14T09:01:52.868Z,4.09
2023-03-14T09:04:26.164Z,4.17
2023-03-14T09:06:59.969Z,4.17
2023-03-14T09:09:36.591Z,4.23
2023-03-14T09:12:10.249Z,4.28
2023-03-14T09:14:43.477Z,4.40
2023-03-14T09:17:16.820Z,4.61
2023-03-14T09:19:49.971Z,4.70
2023-03-14T09:22:23.511Z,4.77
2023-03-14T09:24:57.786Z,4.86
2023-03-14T09:27:31.060Z,5.01
2023-03-14T09:30:09.803Z,5.09
2023-03-14T09:32:42.930Z,5.22
2023-03-14T09:35:16.162Z,5.26
2023-03-14T09:37:49.689Z,5.19
2023-03-14T09:40:24.886Z,5.25
2023-03-14T09:42:59.948Z,5.36
2023-03-14T09:45:39.202Z,5.35
2023-03-14T09:48:17.277Z,5.26
2023-03-14T09:50:53.904Z,5.27
2023-03-14T09:53:30.585Z,5.21
2023-03-14T09:56:09.539Z,5.18
2023-03-14T09:58:45.185Z,5.08
2023-03-14T10:01:21.616Z,5.10
2023-03-14T10:03:58.241Z,5.07
2023-03-14T10:06:36.855Z,5.06
2023-03-14T10:09:13.765Z,5.01
2023-03-14T10:11:47.695Z,5.02
2023-03-14T10:14:32.674Z,4.92
2023-03-14T10:17:14.695Z,4.85
2023-03-14T10:19:59.332Z,4.92
2023-03-14T10:25:32.358Z,4.61
2023-03-14T10:28:08.178Z,4.10
2023-03-14T10:30:47.135Z,3.85
2023-03-14T10:33:25.656Z,3.77
2023-03-14T10:36:01.383Z,3.72
2023-03-14T10:38:39.579Z,3.63
2023-03-14T10:41:22.770Z,3.56
2023-03-14T10:43:59.018Z,3.53
2023-03-14T10:46:39.339Z,3.47
2023-03-14T10:49:37.113Z,3.46
2023-03-14T10:52:35.739Z,3.61
2023-03-14T10:55:03.926Z,3.60
2023-03-14T10:57:41.541Z,3.70
2023-03-14T11:00:18.122Z,3.80
2023-03-14T11:03:07.492Z,4.08
2023-03-14T11:05:44.636Z,4.32
2023-03-14T11:08:21.720Z,4.54
2023-03-14T11:10:58.549Z,4.58
2023-03-14T11:13:37.869Z,4.53
2023-03-14T11:16:14.783Z,4.69
2023-03-14T11:19:19.240Z,4.76
2023-03-14T11:21:56.820Z,4.89
2023-03-14T11:24:44.714Z,5.09
2023-03-14T11:27:23.245Z,5.21
2023-03-14T11:30:02.881Z,5.28
2023-03-14T11:32:46.531Z,5.38
2023-03-14T11:35:24.998Z,5.53
2023-03-14T11:38:04.351Z,5.50
2023-03-14T11:40:36.697Z,5.54
2023-03-14T11:43:14.890Z,5.76
2023-03-14T11:45:50.695Z,5.79
2023-03-14T11:48:36.486Z,5.88
2023-03-14T11:51:13.633Z,5.87
2023-03-14T11:53:55.820Z,5.88
2023-03-14T11:56:38.140Z,5.86
2023-03-14T11:59:15.458Z,5.84
2023-03-14T12:01:59.363Z,5.83
2023-03-14T12:04:55.308Z,5.75
2023-03-14T12:07:36.455Z,5.71
2023-03-14T12:10:10.910Z,5.69
2023-03-14T12:12:44.722Z,5.82
2023-03-14T12:15:23.965Z,5.92
2023-03-14T12:17:59.335Z,6.01
2023-03-14T12:20:32.909Z,6.13
2023-03-14T12:23:14.478Z,6.04
2023-03-14T12:25:46.439Z,5.95
2023-03-14T12:28:24.183Z,6.02
2023-03-14T12:30:57.444Z,6.05
2023-03-14T12:33:36.150Z,6.01
2023-03-14T12:36:51.813Z,5.98
2023-03-14T12:39:39.295Z,5.94
2023-03-14T12:42:14.973Z,5.79
2023-03-14T12:44:51.111Z,5.67
2023-03-14T12:48:00.166Z,5.73
2023-03-14T12:50:42.734Z,5.59
2023-03-14T12:54:03.984Z,5.36
2023-03-14T12:57:02.792Z,5.34
2023-03-14T12:59:43.701Z,5.48
2023-03-14T13:02:29.800Z,5.48
2023-03-14T13:05:13.777Z,5.41
2023-03-14T13:08:12.330Z,5.51
2023-03-14T13:10:50.133Z,5.59
2023-03-14T13:13:25.117Z,5.54
2023-03-14T13:16:01.446Z,5.61
2023-03-14T13:21:27.628Z,5.83
2023-03-14T13:24:06.110Z,5.83
2023-03-14T13:26:43.522Z,5.84
2023-03-14T13:29:21.973Z,5.87
2023-03-14T13:31:58.585Z,5.90
2023-03-14T13:34:38.168Z,5.90
2023-03-14T13:37:21.157Z,5.92
2023-03-14T13:39:56.683Z,5.96
2023-03-14T13:42:32.017Z,5.98
2023-03-14T13:45:13.237Z,6.02
2023-03-14T13:47:49.399Z,5.98
2023-03-14T13:50:22.840Z,5.98
2023-03-14T13:53:00.272Z,6.03
2023-03-14T13:58:24.662Z,6.14
2023-03-14T14:01:04.761Z,6.05
2023-03-14T14:03:42.866Z,6.03
2023-03-14T14:06:28.928Z,6.05
2023-03-14T14:09:14.527Z,6.01
2023-03-14T14:12:07.410Z,6.01
2023-03-14T14:14:28.887Z,5.96
2023-03-14T14:17:05.468Z,6.09
2023-03-14T14:19:43.729Z,6.12
2023-03-14T14:22:17.407Z,6.00
2023-03-14T14:24:53.048Z,6.05
2023-03-14T14:27:33.201Z,6.05
2023-03-14T14:30:28.348Z,6.07
2023-03-14T14:33:21.283Z,6.05
2023-03-14T14:35:59.580Z,6.01
2023-03-14T14:38:35.934Z,5.96
2023-03-14T14:41:10.524Z,6.04
2023-03-14T14:43:47.026Z,6.00
2023-03-14T14:49:17.579Z,6.11
2023-03-14T14:51:54.010Z,5.99
2023-03-14T14:54:42.418Z,6.00
2023-03-14T14:57:23.063Z,6.02
2023-03-14T15:00:01.484Z,5.98
2023-03-14T15:02:46.687Z,5.96
2023-03-14T15:05:23.681Z,5.97
2023-03-14T15:07:58.805Z,5.93
2023-03-14T15:10:33.817Z,5.95
2023-03-14T15:13:08.422Z,5.93
2023-03-14T15:15:41.873Z,5.91
2023-03-14T15:18:20.617Z,5.95
2023-03-14T15:20:55.420Z,5.93
2023-03-14T15:23:28.549Z,5.91
2023-03-14T15:26:20.328Z,5.84
2023-03-14T15:28:59.008Z,5.83
2023-03-14T15:31:32.187Z,5.81
2023-03-14T15:34:05.805Z,5.86
2023-03-14T15:36:45.598Z,5.86
2023-03-14T15:39:31.691Z,5.84
2023-03-14T15:42:24.449Z,5.83
2023-03-14T15:44:59.347Z,5.83
2023-03-14T15:47:34.673Z,5.78
2023-03-14T15:50:10.855Z,5.73
2023-03-14T15:52:52.131Z,5.79
2023-03-14T15:58:28.493Z,5.87
2023-03-14T16:01:12.694Z,5.76
2023-03-14T16:03:50.027Z,5.72
2023-03-14T16:06:26.669Z,5.77
2023-03-14T16:09:01.398Z,5.82
2023-03-14T16:11:36.174Z,5.71
2023-03-14T16:14:09.702Z,5.67
2023-03-14T16:16:43.251Z,5.62
2023-03-14T16:19:16.444Z,5.65
2023-03-14T16:21:53.536Z,5.59
2023-03-14T16:24:31.514Z,5.58
2023-03-14T16:27:08.454Z,5.64
2023-03-14T16:29:50.161Z,5.60
2023-03-14T16:32:26.214Z,5.58
2023-03-14T16:35:01.448Z,5.60
2023-03-14T16:37:34.952Z,5.59
2023-03-14T16:40:13.035Z,5.61
2023-03-14T16:43:14.582Z,5.63
2023-03-14T16:45:24.836Z,5.58
2023-03-14T16:47:58.214Z,5.57
2023-03-14T16:50:37.913Z,5.58
2023-03-14T16:53:16.592Z,5.55
2023-03-14T16:55:54.434Z,5.43
2023-03-14T16:58:27.989Z,5.41
2023-03-14T17:01:03.652Z,5.53
2023-03-14T17:03:37.102Z,5.52
2023-03-14T17:06:13.515Z,5.44
2023-03-14T17:09:04.205Z,5.40
2023-03-14T17:17:55.568Z,5.37
2023-03-14T17:20:30.891Z,5.37
2023-03-14T17:23:04.189Z,5.39
2023-03-14T17:25:40.422Z,5.34
2023-03-14T17:31:04.432Z,5.44
2023-03-14T17:33:47.795Z,5.31
2023-03-14T17:36:24.897Z,5.33
2023-03-14T17:38:58.638Z,5.27
2023-03-14T17:41:31.883Z,5.27
2023-03-14T17:44:06.788Z,5.29
2023-03-14T17:46:42.391Z,5.28
2023-03-14T17:49:15.545Z,5.21
2023-03-14T17:51:54.394Z,5.13
2023-03-14T17:54:27.785Z,5.11
2023-03-14T17:57:00.965Z,5.09
2023-03-14T17:59:34.532Z,5.15
2023-03-14T18:02:08.530Z,5.12
2023-03-14T18:04:41.826Z,5.13
2023-03-14T18:07:15.282Z,5.16
2023-03-14T18:09:52.124Z,5.24
2023-03-14T18:12:28.842Z,5.14
2023-03-14T18:15:06.405Z,5.18
2023-03-14T18:17:43.947Z,5.15
2023-03-14T18:42:26.197Z,5.08
2023-03-14T18:44:59.475Z,4.98
2023-03-14T18:47:36.223Z,4.97
2023-03-14T18:50:13.698Z,5.02
2023-03-14T18:52:48.389Z,4.99
2023-03-14T18:55:22.803Z,5.04
2023-03-14T18:57:55.885Z,5.02
2023-03-14T19:00:30.800Z,5.06
2023-03-14T19:03:04.424Z,5.04
2023-03-14T19:05:39.515Z,5.04
2023-03-14T19:08:32.999Z,5.08
2023-03-14T19:11:08.097Z,5.11
2023-03-14T19:13:42.409Z,5.15
2023-03-14T19:16:17.108Z,5.11
2023-03-14T19:18:54.463Z,5.08
2023-03-14T19:21:32.744Z,5.11
2023-03-14T19:24:07.304Z,5.14
2023-03-14T19:26:40.559Z,5.09
2023-03-14T19:29:13.868Z,5.10
2023-03-14T19:31:47.305Z,5.12
2023-03-14T19:34:21.338Z,5.15
2023-03-14T19:36:55.014Z,5.15
2023-03-14T19:39:28.437Z,5.16
2023-03-14T19:42:03.275Z,5.25
2023-03-14T19:44:36.482Z,5.12
2023-03-14T19:47:09.611Z,5.10
2023-03-14T19:49:42.949Z,5.08
2023-03-14T19:52:18.341Z,5.10
2023-03-14T19:54:54.935Z,5.07
2023-03-14T19:57:28.700Z,5.08
2023-03-14T20:00:05.153Z,5.07
2023-03-14T20:02:42.573Z,5.00
2023-03-14T20:05:19.776Z,5.02
2023-03-14T20:07:54.301Z,4.89
2023-03-14T20:10:27.593Z,4.86
2023-03-14T20:15:49.155Z,4.95
2023-03-14T20:18:24.132Z,4.82
2023-03-14T20:20:57.359Z,4.72
2023-03-14T20:23:30.930Z,4.77
2023-03-14T20:26:04.776Z,4.74
2023-03-14T20:28:42.053Z,4.69
2023-03-14T20:31:16.211Z,4.72
2023-03-14T20:33:51.425Z,4.75
2023-03-14T20:36:25.312Z,4.77
2023-03-14T20:38:58.544Z,4.74
2023-03-14T20:41:31.876Z,4.65
2023-03-14T20:44:05.259Z,4.65
2023-03-14T20:46:38.526Z,4.63
2023-03-14T20:49:11.983Z,4.66
2023-03-14T20:51:57.682Z,4.62
2023-03-14T20:54:39.624Z,4.66
2023-03-14T20:57:15.591Z,4.59
2023-03-14T20:59:48.799Z,4.60
2023-03-14T21:02:22.067Z,4.67
2023-03-14T21:04:56.938Z,4.74
2023-03-14T21:07:34.433Z,4.73
2023-03-14T21:10:11.336Z,4.78
2023-03-14T21:12:44.629Z,4.88
2023-03-14T21:15:18.296Z,4.88
2023-03-14T21:17:53.776Z,4.81
2023-03-14T21:20:26.982Z,4.88
2023-03-14T21:23:00.673Z,4.89
2023-03-14T21:25:34.752Z,4.87
2023-03-14T21:28:08.089Z,4.91
2023-03-14T21:30:41.404Z,4.88
2023-03-14T21:33:15.759Z,4.86
2023-03-14T21:35:49.685Z,4.85
2023-03-14T21:38:23.166Z,4.95
2023-03-14T21:41:00.016Z,4.91
2023-03-14T21:43:33.833Z,4.92
2023-03-14T21:46:07.295Z,5.03
2023-03-14T21:48:40.591Z,5.05
2023-03-14T21:51:13.958Z,5.04
2023-03-14T21:53:47.103Z,5.04
2023-03-14T21:56:20.445Z,5.05
2023-03-14T21:58:55.762Z,5.03
2023-03-14T22:01:29.058Z,5.07
2023-03-14T22:04:02.565Z,5.00
2023-03-14T22:06:35.862Z,5.02
2023-03-14T22:09:09.152Z,4.98
2023-03-14T22:11:45.045Z,4.94
2023-03-14T22:14:18.387Z,4.90
2023-03-14T22:16:51.770Z,4.94
2023-03-14T22:19:25.040Z,4.95
2023-03-14T22:21:58.396Z,4.91
2023-03-14T22:24:31.675Z,4.96
2023-03-14T22:27:04.969Z,5.04
2023-03-14T22:29:38.484Z,5.06
2023-03-14T22:32:13.043Z,4.98
2023-03-14T22:34:46.743Z,4.96
2023-03-14T22:37:20.508Z,4.93
2023-03-14T22:39:54.049Z,5.00
2023-03-14T22:42:27.604Z,5.05
2023-03-14T22:45:01.112Z,5.00
2023-03-14T22:47:34.696Z,5.00
2023-03-14T22:50:10.116Z,5.05
2023-03-14T22:52:43.556Z,5.05
2023-03-14T22:55:17.158Z,4.98
2023-03-14T22:57:53.750Z,4.96
2023-03-14T23:00:28.096Z,5.04
2023-03-14T23:03:01.925Z,5.04
2023-03-14T23:05:35.359Z,5.02
2023-03-14T23:08:09.031Z,4.98
2023-03-14T23:10:43.360Z,4.93
2023-03-14T23:13:16.789Z,4.94
2023-03-14T23:15:50.480Z,4.95
2023-03-14T23:18:25.600Z,4.95
2023-03-14T23:21:10.001Z,4.91
2023-03-14T23:23:46.770Z,4.90
2023-03-14T23:26:23.449Z,4.78
2023-03-14T23:28:57.602Z,4.82
2023-03-14T23:31:32.514Z,4.85
2023-03-14T23:34:05.994Z,4.85
2023-03-14T23:36:39.610Z,4.77
2023-03-14T23:39:13.790Z,4.77
2023-03-14T23:41:47.353Z,4.76
2023-03-14T23:44:20.769Z,4.76
2023-03-14T23:46:54.241Z,4.77
2023-03-14T23:49:27.467Z,4.78
2023-03-14T23:52:00.896Z,4.78
2023-03-14T23:54:34.277Z,4.81
2023-03-14T23:57:10.374Z,4.84
2023-03-14T23:59:43.877Z,4.84
